Time;durP1;ratioP1;P1;durP2;ratioP2;P2;SDS_P1;SDS_P2;PMS_P1;PMS_P2;Temp;Humidity;BMP_temperature;BMP_pressure;BME280_temperature;BME280_humidity;BME280_pressure;Samples;Min_cycle;Max_cycle;Signal;HPM_P1;HPM_P2
2023/09/28 00:04:07;;;;;;;15.18;7.28;;;;;;;23.08;45.45;100992.44;31492016;28;20044;-79
2023/09/28 00:19:10;;;;;;;28.13;11.65;;;;;;;22.79;45.74;100996.06;31505084;28;21246;-79
2023/09/28 00:34:12;;;;;;;14.10;8.95;;;;;;;22.91;45.92;100997.00;31479702;28;20063;-81
2023/09/28 00:49:16;;;;;;;20.55;11.05;;;;;;;22.72;46.90;100993.66;31499201;28;20076;-78
2023/09/28 01:04:18;;;;;;;;;;;;;;;22.35;49.15;100987.81;31516273;28;20091;-79
2023/09/28 01:19:20;;;;;;;23.30;10.90;;;;;;;22.38;48.21;100992.41;31519694;28;20390;-78
2023/09/28 01:34:22;;;;;;;22.05;10.63;;;;;;;22.27;48.45;101000.50;31511552;28;20074;-79
2023/09/28 01:49:24;;;;;;;15.95;9.55;;;;;;;22.15;49.22;100996.78;31515438;28;20048;-79
2023/09/28 02:04:26;;;;;;;17.00;8.65;;;;;;;22.20;48.83;101003.66;31503650;28;20127;-80
2023/09/28 02:19:28;;;;;;;18.88;8.60;;;;;;;22.09;48.80;101004.97;31499346;28;20052;-79
2023/09/28 02:34:33;;;;;;;13.95;7.70;;;;;;;22.01;49.15;100998.28;31530999;28;20071;-80
2023/09/28 02:49:35;;;;;;;14.55;7.40;;;;;;;21.74;49.72;101006.81;31522490;28;20467;-79
2023/09/28 03:04:37;;;;;;;18.33;8.35;;;;;;;21.65;50.56;101015.19;31494417;28;20548;-79
2023/09/28 03:19:40;;;;;;;10.45;6.75;;;;;;;21.51;51.13;101016.66;31512286;28;20058;-78
2023/09/28 03:34:42;;;;;;;19.35;7.55;;;;;;;21.53;50.92;101030.00;31506308;28;20044;-79
2023/09/28 03:49:45;;;;;;;13.90;6.97;;;;;;;21.69;50.95;101026.81;31519773;28;20051;-80
2023/09/28 04:04:47;;;;;;;15.05;7.72;;;;;;;21.73;50.99;101033.69;31507988;28;20050;-78
2023/09/28 04:19:49;;;;;;;18.80;8.05;;;;;;;21.91;50.72;101032.00;31510914;28;20488;-78
2023/09/28 04:34:51;;;;;;;28.38;9.25;;;;;;;22.43;50.10;101038.75;31498062;28;20051;-80
2023/09/28 04:49:55;;;;;;;81.82;16.02;;;;;;;23.36;48.51;101039.91;31508618;28;20063;-78
2023/09/28 05:05:00;;;;;;;34.97;13.30;;;;;;;23.81;48.25;101038.44;31501167;28;20101;-79
2023/09/28 05:20:03;;;;;;;25.23;10.40;;;;;;;24.52;47.27;101045.19;31493957;28;20130;-78
2023/09/28 05:35:06;;;;;;;30.52;12.57;;;;;;;25.57;45.92;101051.88;31483688;28;20982;-81
2023/09/28 05:50:09;;;;;;;37.63;12.10;;;;;;;27.08;42.84;101058.41;31504325;28;20047;-79
2023/09/28 06:05:11;;;;;;;26.07;10.43;;;;;;;28.80;40.60;101058.72;31508063;28;20049;-79
2023/09/28 06:20:13;;;;;;;29.90;9.70;;;;;;;30.02;38.84;101059.31;31519822;28;20044;-78
2023/09/28 06:35:15;;;;;;;;;;;;;;;31.13;35.70;101065.13;31513059;28;20040;-80
2023/09/28 06:50:17;;;;;;;9.73;4.68;;;;;;;31.96;33.69;101067.47;31514535;28;20379;-79
2023/09/28 07:05:22;;;;;;;13.10;4.82;;;;;;;32.51;33.59;101064.66;31521837;28;20052;-80
2023/09/28 07:20:27;;;;;;;9.65;4.82;;;;;;;32.41;33.03;101063.63;31513173;28;20130;-79
2023/09/28 07:35:29;;;;;;;6.32;4.93;;;;;;;33.10;32.11;101059.28;31511445;28;20068;-80
2023/09/28 07:50:32;;;;;;;10.55;5.20;;;;;;;34.09;31.36;101043.53;31513200;28;20131;-78
2023/09/28 08:05:34;;;;;;;10.68;4.70;;;;;;;34.42;30.90;101027.63;31489355;28;20428;-77
2023/09/28 08:20:37;;;;;;;8.70;4.45;;;;;;;35.38;30.13;101020.09;31484548;28;20044;-83
2023/09/28 08:35:48;;;;;;;9.95;3.80;;;;;;;35.90;29.15;101008.38;31449404;28;20973;-82
2023/09/28 08:51:26;;;;;;;6.78;2.78;;;;;;;35.82;28.28;100988.63;31478375;28;20168;-78
2023/09/28 09:07:00;;;;;;;8.35;3.03;;;;;;;35.60;28.68;101000.78;31486505;28;20056;-84
2023/09/28 09:22:04;;;;;;;8.35;2.97;;;;;;;35.49;28.93;100997.06;31489538;28;20049;-79
2023/09/28 09:37:12;;;;;;;12.45;3.97;;;;;;;36.41;28.77;100973.84;31462235;28;20053;-80
2023/09/28 09:52:18;;;;;;;8.00;2.70;;;;;;;36.45;28.20;100966.44;31469246;28;20056;-78
2023/09/28 10:07:33;;;;;;;4.82;2.72;;;;;;;37.16;27.28;100934.72;31474274;28;20095;-80
2023/09/28 10:22:48;;;;;;;7.85;2.78;;;;;;;37.43;26.89;100931.91;31485310;28;20048;-78
2023/09/28 10:38:24;;;;;;;4.93;2.50;;;;;;;37.48;25.96;100937.31;31509605;28;20053;-80
2023/09/28 10:53:30;;;;;;;8.63;3.10;;;;;;;37.61;25.84;100907.09;31502708;28;20048;-83
2023/09/28 11:08:33;;;;;;;6.97;2.55;;;;;;;37.46;26.27;100891.09;31500826;28;20064;-81
2023/09/28 11:23:35;;;;;;;6.47;2.53;;;;;;;37.80;25.46;100878.84;31481920;28;20041;-80
2023/09/28 11:38:39;;;;;;;6.45;2.83;;;;;;;38.42;24.43;100868.69;31467275;28;20076;-78
2023/09/28 11:53:54;;;;;;;4.63;2.75;;;;;;;38.66;24.51;100851.97;31500246;28;20415;-83
2023/09/28 12:08:57;;;;;;;6.03;3.15;;;;;;;34.99;26.98;100837.41;31479446;28;20144;-84
2023/09/28 12:24:00;;;;;;;5.57;2.45;;;;;;;33.53;29.05;100839.81;31500180;28;20110;-81
2023/09/28 12:39:04;;;;;;;6.75;2.97;;;;;;;33.11;29.92;100816.06;31484111;28;20059;-86
2023/09/28 12:54:09;;;;;;;5.72;3.25;;;;;;;32.90;30.10;100818.28;31489167;28;20139;-84
2023/09/28 13:09:14;;;;;;;6.22;3.03;;;;;;;32.53;30.59;100806.31;31481501;28;20080;-85
2023/09/28 13:24:16;;;;;;;9.48;3.83;;;;;;;32.41;30.84;100805.13;31516310;28;20079;-84
2023/09/28 13:39:29;;;;;;;7.53;3.10;;;;;;;32.17;30.56;100797.88;31504250;28;20083;-83
2023/09/28 13:54:31;;;;;;;5.90;2.90;;;;;;;32.08;30.52;100801.94;31485621;28;20051;-83
2023/09/28 14:09:33;;;;;;;6.90;3.35;;;;;;;31.85;30.91;100806.66;31510029;28;20060;-83
2023/09/28 14:24:35;;;;;;;6.88;2.85;;;;;;;31.57;31.09;100793.31;31520882;28;20094;-83
2023/09/28 14:39:38;;;;;;;11.00;4.43;;;;;;;31.49;31.45;100798.88;31487047;28;20067;-83
2023/09/28 14:54:42;;;;;;;4.20;3.22;;;;;;;31.31;31.65;100811.06;31464118;28;20049;-78
2023/09/28 15:09:45;;;;;;;6.63;4.00;;;;;;;31.02;31.84;100809.41;31453750;28;20447;-81
2023/09/28 15:24:47;;;;;;;8.32;3.85;;;;;;;30.73;31.98;100819.75;31484880;28;20123;-78
2023/09/28 15:39:50;;;;;;;10.55;3.97;;;;;;;30.53;32.27;100829.56;31474742;28;20071;-77
2023/09/28 15:54:52;;;;;;;9.27;4.65;;;;;;;30.24;32.68;100847.44;31480082;28;20040;-80
2023/09/28 16:09:54;;;;;;;16.05;7.30;;;;;;;30.06;32.55;100838.63;31467023;28;20064;-79
2023/09/28 16:24:58;;;;;;;11.15;4.55;;;;;;;29.88;32.92;100842.22;31507862;28;20040;-80
2023/09/28 16:40:02;;;;;;;9.40;4.45;;;;;;;29.75;33.15;100850.59;31455103;28;20102;-76
2023/09/28 16:55:06;;;;;;;36.28;10.20;;;;;;;29.48;34.35;100849.78;31462994;28;20048;-80
2023/09/28 17:10:09;;;;;;;15.20;7.45;;;;;;;28.87;35.80;100861.78;31469344;28;20455;-75
2023/09/28 17:25:11;;;;;;;15.35;7.47;;;;;;;28.65;35.68;100873.97;31457418;28;20477;-78
2023/09/28 17:40:13;;;;;;;31.13;14.93;;;;;;;28.48;35.67;100877.72;31458323;28;20148;-82
2023/09/28 17:55:16;;;;;;;30.93;10.57;;;;;;;28.30;36.19;100884.03;31485642;28;20711;-79
2023/09/28 18:10:18;;;;;;;43.83;14.17;;;;;;;28.09;36.67;100880.13;31489950;28;20304;-79
2023/09/28 18:25:20;;;;;;;14.47;7.77;;;;;;;27.93;37.09;100879.00;31496710;28;20053;-79
2023/09/28 18:40:23;;;;;;;12.55;6.35;;;;;;;27.89;37.23;100889.69;31456201;28;20052;-79
2023/09/28 18:55:25;;;;;;;14.40;6.00;;;;;;;27.76;37.25;100881.19;31493765;28;20102;-77
2023/09/28 19:10:28;;;;;;;10.70;5.37;;;;;;;27.59;37.76;100884.09;31470552;28;20063;-77
2023/09/28 19:25:29;;;;;;;;;;;;;;;27.43;39.00;100899.63;31456932;28;20075;-78
2023/09/28 19:40:31;;;;;;;21.23;9.90;;;;;;;27.09;38.61;100898.31;31466941;28;20011;-78
2023/09/28 19:55:34;;;;;;;14.80;7.90;;;;;;;26.68;39.85;100893.41;31472638;28;20449;-78
2023/09/28 20:10:36;;;;;;;21.17;9.70;;;;;;;26.36;40.58;100909.66;31448905;28;20067;-79
2023/09/28 20:25:40;;;;;;;16.87;8.20;;;;;;;26.16;40.80;100905.13;31448715;28;20056;-79
2023/09/28 20:40:42;;;;;;;18.92;8.23;;;;;;;25.85;41.54;100899.81;31458925;28;20398;-79
2023/09/28 20:55:44;;;;;;;15.15;6.70;;;;;;;25.66;41.97;100909.91;31476026;28;20053;-80
2023/09/28 21:10:46;;;;;;;15.20;8.02;;;;;;;25.45;42.51;100909.34;31443473;28;20064;-79
2023/09/28 21:25:48;;;;;;;17.15;9.10;;;;;;;25.37;42.52;100909.06;31488460;28;20412;-82
2023/09/28 21:40:53;;;;;;;16.77;9.05;;;;;;;25.31;42.97;100908.28;31462492;28;20052;-83
2023/09/28 21:55:55;;;;;;;22.88;9.00;;;;;;;25.13;43.53;100911.53;31466242;28;20048;-82
2023/09/28 22:10:57;;;;;;;15.73;9.38;;;;;;;24.92;44.13;100908.13;31501058;28;20466;-82
2023/09/28 22:25:59;;;;;;;22.77;9.85;;;;;;;24.86;43.91;100909.38;31509138;28;20045;-82
2023/09/28 22:41:02;;;;;;;23.42;10.60;;;;;;;24.68;44.18;100907.78;31458738;28;20064;-81
2023/09/28 22:56:04;;;;;;;20.10;11.07;;;;;;;24.48;44.96;100912.22;31477253;28;20044;-83
2023/09/28 23:11:13;;;;;;;22.55;10.35;;;;;;;24.30;45.37;100898.72;31503717;28;20110;-82
2023/09/28 23:26:16;;;;;;;24.20;10.90;;;;;;;24.19;45.25;100895.06;31478675;28;20110;-83
2023/09/28 23:41:18;;;;;;;21.30;10.77;;;;;;;24.01;45.56;100893.44;31494827;28;20699;-83
2023/09/28 23:56:21;;;;;;;26.10;11.67;;;;;;;23.88;45.78;100890.28;31480017;28;20131;-82
